sensor_id;sensor_type;location;lat;lon;timestamp;P1;durP1;ratioP1;P2;durP2;ratioP2
59006;SDS011;44792;52.760;6.726;2023-04-03T00:06:31;2.47;;;1.58;;
59006;SDS011;44792;52.760;6.726;2023-04-03T00:08:56;1.90;;;1.80;;
59006;SDS011;44792;52.760;6.726;2023-04-03T00:11:22;3.25;;;1.70;;
59006;SDS011;44792;52.760;6.726;2023-04-03T00:13:48;3.00;;;1.45;;
59006;SDS011;44792;52.760;6.726;2023-04-03T00:16:14;1.67;;;1.33;;
59006;SDS011;44792;52.760;6.726;2023-04-03T00:18:41;3.33;;;1.60;;
59006;SDS011;44792;52.760;6.726;2023-04-03T00:21:07;2.15;;;1.83;;
59006;SDS011;44792;52.760;6.726;2023-04-03T00:23:33;2.50;;;1.85;;
59006;SDS011;44792;52.760;6.726;2023-04-03T00:25:59;2.55;;;1.60;;
59006;SDS011;44792;52.760;6.726;2023-04-03T00:28:25;2.30;;;1.35;;
59006;SDS011;44792;52.760;6.726;2023-04-03T00:30:51;8.63;;;1.73;;
59006;SDS011;44792;52.760;6.726;2023-04-03T00:33:17;5.15;;;1.73;;
59006;SDS011;44792;52.760;6.726;2023-04-03T00:35:46;3.25;;;1.77;;
59006;SDS011;44792;52.760;6.726;2023-04-03T00:38:13;1.88;;;1.73;;
59006;SDS011;44792;52.760;6.726;2023-04-03T00:40:42;1.85;;;1.50;;
59006;SDS011;44792;52.760;6.726;2023-04-03T00:43:13;3.08;;;2.10;;
59006;SDS011;44792;52.760;6.726;2023-04-03T00:45:44;2.25;;;1.80;;
59006;SDS011;44792;52.760;6.726;2023-04-03T00:48:13;2.95;;;1.70;;
59006;SDS011;44792;52.760;6.726;2023-04-03T00:50:42;2.53;;;2.33;;
59006;SDS011;44792;52.760;6.726;2023-04-03T00:53:11;4.60;;;2.20;;
59006;SDS011;44792;52.760;6.726;2023-04-03T00:55:39;4.68;;;2.20;;
59006;SDS011;44792;52.760;6.726;2023-04-03T00:58:06;2.03;;;1.75;;
59006;SDS011;44792;52.760;6.726;2023-04-03T01:00:33;1.92;;;1.73;;
59006;SDS011;44792;52.760;6.726;2023-04-03T01:03:00;4.90;;;2.72;;
59006;SDS011;44792;52.760;6.726;2023-04-03T01:05:26;4.40;;;1.90;;
59006;SDS011;44792;52.760;6.726;2023-04-03T01:07:52;4.60;;;1.95;;
59006;SDS011;44792;52.760;6.726;2023-04-03T01:10:18;1.95;;;1.73;;
59006;SDS011;44792;52.760;6.726;2023-04-03T01:12:46;6.13;;;2.28;;
59006;SDS011;44792;52.760;6.726;2023-04-03T01:15:23;2.42;;;2.22;;
59006;SDS011;44792;52.760;6.726;2023-04-03T01:17:55;2.35;;;1.63;;
59006;SDS011;44792;52.760;6.726;2023-04-03T01:25:38;4.90;;;1.98;;
59006;SDS011;44792;52.760;6.726;2023-04-03T01:28:24;2.83;;;1.83;;
59006;SDS011;44792;52.760;6.726;2023-04-03T01:33:55;1.92;;;1.70;;
59006;SDS011;44792;52.760;6.726;2023-04-03T01:36:22;7.82;;;2.60;;
59006;SDS011;44792;52.760;6.726;2023-04-03T01:38:50;3.50;;;1.90;;
59006;SDS011;44792;52.760;6.726;2023-04-03T01:41:17;2.75;;;2.03;;
59006;SDS011;44792;52.760;6.726;2023-04-03T01:43:42;4.07;;;2.05;;
59006;SDS011;44792;52.760;6.726;2023-04-03T01:46:08;5.85;;;2.03;;
59006;SDS011;44792;52.760;6.726;2023-04-03T01:48:34;4.28;;;2.13;;
59006;SDS011;44792;52.760;6.726;2023-04-03T01:51:00;4.38;;;2.15;;
59006;SDS011;44792;52.760;6.726;2023-04-03T01:53:25;5.43;;;2.58;;
59006;SDS011;44792;52.760;6.726;2023-04-03T01:55:51;9.98;;;2.45;;
59006;SDS011;44792;52.760;6.726;2023-04-03T01:58:17;3.60;;;2.20;;
59006;SDS011;44792;52.760;6.726;2023-04-03T02:00:43;3.58;;;2.30;;
59006;SDS011;44792;52.760;6.726;2023-04-03T02:03:08;5.07;;;2.38;;
59006;SDS011;44792;52.760;6.726;2023-04-03T02:05:34;4.50;;;2.42;;
59006;SDS011;44792;52.760;6.726;2023-04-03T02:08:00;3.75;;;2.08;;
59006;SDS011;44792;52.760;6.726;2023-04-03T02:10:26;4.47;;;2.10;;
59006;SDS011;44792;52.760;6.726;2023-04-03T02:12:52;3.70;;;2.05;;
59006;SDS011;44792;52.760;6.726;2023-04-03T02:15:17;3.92;;;1.92;;
59006;SDS011;44792;52.760;6.726;2023-04-03T02:17:43;3.97;;;2.60;;
59006;SDS011;44792;52.760;6.726;2023-04-03T02:20:09;4.75;;;2.47;;
59006;SDS011;44792;52.760;6.726;2023-04-03T02:22:35;3.95;;;2.35;;
59006;SDS011;44792;52.760;6.726;2023-04-03T02:25:01;4.00;;;2.30;;
59006;SDS011;44792;52.760;6.726;2023-04-03T02:27:27;5.72;;;2.50;;
59006;SDS011;44792;52.760;6.726;2023-04-03T02:29:53;5.10;;;2.35;;
59006;SDS011;44792;52.760;6.726;2023-04-03T02:32:19;7.35;;;2.78;;
59006;SDS011;44792;52.760;6.726;2023-04-03T02:34:45;5.47;;;2.13;;
59006;SDS011;44792;52.760;6.726;2023-04-03T02:37:10;2.72;;;2.10;;
59006;SDS011;44792;52.760;6.726;2023-04-03T02:39:36;4.10;;;2.20;;
59006;SDS011;44792;52.760;6.726;2023-04-03T02:42:02;5.97;;;2.80;;
59006;SDS011;44792;52.760;6.726;2023-04-03T02:44:28;3.08;;;2.30;;
59006;SDS011;44792;52.760;6.726;2023-04-03T02:46:54;3.22;;;1.83;;
59006;SDS011;44792;52.760;6.726;2023-04-03T02:49:20;5.75;;;2.25;;
59006;SDS011;44792;52.760;6.726;2023-04-03T02:51:46;5.65;;;2.05;;
59006;SDS011;44792;52.760;6.726;2023-04-03T02:54:12;6.80;;;2.58;;
59006;SDS011;44792;52.760;6.726;2023-04-03T02:56:38;2.83;;;1.90;;
59006;SDS011;44792;52.760;6.726;2023-04-03T02:59:04;3.60;;;2.10;;
59006;SDS011;44792;52.760;6.726;2023-04-03T03:01:30;6.28;;;2.75;;
59006;SDS011;44792;52.760;6.726;2023-04-03T03:03:57;5.57;;;2.35;;
59006;SDS011;44792;52.760;6.726;2023-04-03T03:06:24;6.05;;;2.47;;
59006;SDS011;44792;52.760;6.726;2023-04-03T03:08:50;4.35;;;2.00;;
59006;SDS011;44792;52.760;6.726;2023-04-03T03:11:15;4.25;;;2.55;;
59006;SDS011;44792;52.760;6.726;2023-04-03T03:13:41;3.65;;;2.50;;
59006;SDS011;44792;52.760;6.726;2023-04-03T03:16:07;5.72;;;2.97;;
59006;SDS011;44792;52.760;6.726;2023-04-03T03:18:33;4.57;;;2.40;;
59006;SDS011;44792;52.760;6.726;2023-04-03T03:21:00;5.15;;;1.92;;
59006;SDS011;44792;52.760;6.726;2023-04-03T03:23:28;6.55;;;2.70;;
59006;SDS011;44792;52.760;6.726;2023-04-03T03:25:55;5.32;;;2.72;;
59006;SDS011;44792;52.760;6.726;2023-04-03T03:28:23;5.13;;;2.60;;
59006;SDS011;44792;52.760;6.726;2023-04-03T03:30:48;3.60;;;2.58;;
59006;SDS011;44792;52.760;6.726;2023-04-03T03:33:14;7.35;;;2.30;;
59006;SDS011;44792;52.760;6.726;2023-04-03T03:35:40;4.22;;;2.55;;
59006;SDS011;44792;52.760;6.726;2023-04-03T03:38:06;5.30;;;2.35;;
59006;SDS011;44792;52.760;6.726;2023-04-03T03:40:32;3.22;;;2.25;;
59006;SDS011;44792;52.760;6.726;2023-04-03T03:42:58;6.93;;;2.47;;
59006;SDS011;44792;52.760;6.726;2023-04-03T03:45:23;4.25;;;2.38;;
59006;SDS011;44792;52.760;6.726;2023-04-03T03:47:50;8.40;;;2.60;;
59006;SDS011;44792;52.760;6.726;2023-04-03T03:50:15;5.57;;;1.83;;
59006;SDS011;44792;52.760;6.726;2023-04-03T03:52:41;4.22;;;2.53;;
59006;SDS011;44792;52.760;6.726;2023-04-03T03:55:07;3.42;;;2.20;;
59006;SDS011;44792;52.760;6.726;2023-04-03T03:57:33;5.13;;;2.45;;
59006;SDS011;44792;52.760;6.726;2023-04-03T03:59:58;6.20;;;2.60;;
59006;SDS011;44792;52.760;6.726;2023-04-03T04:02:24;5.82;;;2.22;;
59006;SDS011;44792;52.760;6.726;2023-04-03T04:04:50;5.90;;;2.70;;
59006;SDS011;44792;52.760;6.726;2023-04-03T04:07:16;6.68;;;2.85;;
59006;SDS011;44792;52.760;6.726;2023-04-03T04:09:41;6.03;;;2.33;;
59006;SDS011;44792;52.760;6.726;2023-04-03T04:12:07;6.35;;;2.35;;
59006;SDS011;44792;52.760;6.726;2023-04-03T04:14:33;4.05;;;2.13;;
59006;SDS011;44792;52.760;6.726;2023-04-03T04:16:58;4.15;;;2.60;;
59006;SDS011;44792;52.760;6.726;2023-04-03T04:19:24;5.65;;;2.40;;
59006;SDS011;44792;52.760;6.726;2023-04-03T04:21:50;6.35;;;2.28;;
59006;SDS011;44792;52.760;6.726;2023-04-03T04:24:15;6.35;;;2.53;;
59006;SDS011;44792;52.760;6.726;2023-04-03T04:26:41;8.68;;;2.70;;
59006;SDS011;44792;52.760;6.726;2023-04-03T04:29:08;8.70;;;2.55;;
59006;SDS011;44792;52.760;6.726;2023-04-03T04:31:35;4.63;;;2.50;;
59006;SDS011;44792;52.760;6.726;2023-04-03T04:34:00;6.15;;;2.65;;
59006;SDS011;44792;52.760;6.726;2023-04-03T04:36:26;6.65;;;2.33;;
59006;SDS011;44792;52.760;6.726;2023-04-03T04:38:52;3.78;;;2.50;;
59006;SDS011;44792;52.760;6.726;2023-04-03T04:41:21;7.75;;;2.53;;
59006;SDS011;44792;52.760;6.726;2023-04-03T04:43:50;4.72;;;2.67;;
59006;SDS011;44792;52.760;6.726;2023-04-03T04:46:17;4.22;;;2.58;;
59006;SDS011;44792;52.760;6.726;2023-04-03T04:48:43;3.70;;;2.38;;
59006;SDS011;44792;52.760;6.726;2023-04-03T04:51:09;6.22;;;2.80;;
59006;SDS011;44792;52.760;6.726;2023-04-03T04:53:35;2.70;;;2.30;;
59006;SDS011;44792;52.760;6.726;2023-04-03T04:56:01;9.13;;;3.17;;
59006;SDS011;44792;52.760;6.726;2023-04-03T04:58:27;5.38;;;2.72;;
59006;SDS011;44792;52.760;6.726;2023-04-03T05:00:59;5.72;;;2.53;;
59006;SDS011;44792;52.760;6.726;2023-04-03T05:03:29;4.32;;;2.47;;
59006;SDS011;44792;52.760;6.726;2023-04-03T05:05:55;5.72;;;2.70;;
59006;SDS011;44792;52.760;6.726;2023-04-03T05:08:21;3.28;;;2.40;;
59006;SDS011;44792;52.760;6.726;2023-04-03T05:10:46;5.15;;;2.50;;
59006;SDS011;44792;52.760;6.726;2023-04-03T05:13:12;4.25;;;2.20;;
59006;SDS011;44792;52.760;6.726;2023-04-03T05:15:38;12.93;;;3.65;;
59006;SDS011;44792;52.760;6.726;2023-04-03T05:18:04;5.40;;;2.40;;
59006;SDS011;44792;52.760;6.726;2023-04-03T05:20:30;6.80;;;2.53;;
59006;SDS011;44792;52.760;6.726;2023-04-03T05:22:56;2.30;;;2.08;;
59006;SDS011;44792;52.760;6.726;2023-04-03T05:25:22;6.25;;;2.40;;
59006;SDS011;44792;52.760;6.726;2023-04-03T05:27:48;3.85;;;2.38;;
59006;SDS011;44792;52.760;6.726;2023-04-03T05:30:14;7.22;;;2.83;;
59006;SDS011;44792;52.760;6.726;2023-04-03T05:32:40;4.22;;;1.98;;
59006;SDS011;44792;52.760;6.726;2023-04-03T05:35:07;4.63;;;2.63;;
59006;SDS011;44792;52.760;6.726;2023-04-03T05:37:33;8.23;;;2.90;;
59006;SDS011;44792;52.760;6.726;2023-04-03T05:39:59;5.85;;;3.28;;
59006;SDS011;44792;52.760;6.726;2023-04-03T05:42:25;4.70;;;2.53;;
59006;SDS011;44792;52.760;6.726;2023-04-03T05:44:51;5.93;;;2.63;;
59006;SDS011;44792;52.760;6.726;2023-04-03T05:47:17;4.22;;;2.20;;
59006;SDS011;44792;52.760;6.726;2023-04-03T05:49:43;4.60;;;2.25;;
59006;SDS011;44792;52.760;6.726;2023-04-03T05:52:18;6.07;;;2.85;;
59006;SDS011;44792;52.760;6.726;2023-04-03T05:54:45;7.07;;;2.30;;
59006;SDS011;44792;52.760;6.726;2023-04-03T05:57:13;5.10;;;2.35;;
59006;SDS011;44792;52.760;6.726;2023-04-03T05:59:41;4.60;;;2.47;;
59006;SDS011;44792;52.760;6.726;2023-04-03T06:02:09;8.70;;;2.42;;
59006;SDS011;44792;52.760;6.726;2023-04-03T06:04:40;3.28;;;2.38;;
59006;SDS011;44792;52.760;6.726;2023-04-03T06:07:06;5.95;;;2.45;;
59006;SDS011;44792;52.760;6.726;2023-04-03T06:09:32;4.15;;;2.50;;
59006;SDS011;44792;52.760;6.726;2023-04-03T06:11:58;2.55;;;2.13;;
59006;SDS011;44792;52.760;6.726;2023-04-03T06:14:25;9.95;;;2.55;;
59006;SDS011;44792;52.760;6.726;2023-04-03T06:16:51;6.80;;;2.17;;
59006;SDS011;44792;52.760;6.726;2023-04-03T06:19:19;2.75;;;1.83;;
59006;SDS011;44792;52.760;6.726;2023-04-03T06:21:45;7.75;;;2.83;;
59006;SDS011;44792;52.760;6.726;2023-04-03T06:24:13;5.32;;;2.45;;
59006;SDS011;44792;52.760;6.726;2023-04-03T06:26:41;7.78;;;2.05;;
59006;SDS011;44792;52.760;6.726;2023-04-03T06:29:07;8.90;;;2.40;;
59006;SDS011;44792;52.760;6.726;2023-04-03T06:31:33;5.13;;;2.00;;
59006;SDS011;44792;52.760;6.726;2023-04-03T06:33:59;8.65;;;2.47;;
59006;SDS011;44792;52.760;6.726;2023-04-03T06:36:25;5.05;;;2.42;;
59006;SDS011;44792;52.760;6.726;2023-04-03T06:38:51;5.35;;;2.88;;
59006;SDS011;44792;52.760;6.726;2023-04-03T06:41:17;5.72;;;2.38;;
59006;SDS011;44792;52.760;6.726;2023-04-03T06:43:45;7.88;;;2.55;;
59006;SDS011;44792;52.760;6.726;2023-04-03T06:46:15;4.05;;;1.90;;
59006;SDS011;44792;52.760;6.726;2023-04-03T06:48:43;6.20;;;2.33;;
59006;SDS011;44792;52.760;6.726;2023-04-03T06:51:25;4.07;;;1.98;;
59006;SDS011;44792;52.760;6.726;2023-04-03T06:53:53;3.90;;;2.05;;
59006;SDS011;44792;52.760;6.726;2023-04-03T06:56:20;4.68;;;2.28;;
59006;SDS011;44792;52.760;6.726;2023-04-03T06:58:47;4.43;;;2.42;;
59006;SDS011;44792;52.760;6.726;2023-04-03T07:01:14;6.88;;;2.13;;
59006;SDS011;44792;52.760;6.726;2023-04-03T07:03:42;7.93;;;2.13;;
59006;SDS011;44792;52.760;6.726;2023-04-03T07:06:09;4.72;;;1.85;;
59006;SDS011;44792;52.760;6.726;2023-04-03T07:08:37;3.78;;;1.70;;
59006;SDS011;44792;52.760;6.726;2023-04-03T07:11:04;3.63;;;2.03;;
59006;SDS011;44792;52.760;6.726;2023-04-03T07:13:30;7.22;;;2.35;;
59006;SDS011;44792;52.760;6.726;2023-04-03T07:15:56;5.68;;;2.13;;
59006;SDS011;44792;52.760;6.726;2023-04-03T07:18:22;2.50;;;2.10;;
59006;SDS011;44792;52.760;6.726;2023-04-03T07:20:48;6.63;;;2.13;;
59006;SDS011;44792;52.760;6.726;2023-04-03T07:23:14;6.15;;;2.22;;
59006;SDS011;44792;52.760;6.726;2023-04-03T07:25:46;3.47;;;1.98;;
59006;SDS011;44792;52.760;6.726;2023-04-03T07:28:13;8.43;;;2.33;;
59006;SDS011;44792;52.760;6.726;2023-04-03T07:30:44;4.25;;;2.50;;
59006;SDS011;44792;52.760;6.726;2023-04-03T07:33:11;6.47;;;2.35;;
59006;SDS011;44792;52.760;6.726;2023-04-03T07:35:38;4.85;;;2.22;;
59006;SDS011;44792;52.760;6.726;2023-04-03T07:38:04;5.05;;;1.83;;
59006;SDS011;44792;52.760;6.726;2023-04-03T07:40:31;6.10;;;2.08;;
59006;SDS011;44792;52.760;6.726;2023-04-03T07:42:57;4.28;;;2.13;;
59006;SDS011;44792;52.760;6.726;2023-04-03T07:45:23;2.28;;;2.00;;
59006;SDS011;44792;52.760;6.726;2023-04-03T07:47:49;4.90;;;2.65;;
59006;SDS011;44792;52.760;6.726;2023-04-03T07:50:15;6.57;;;2.00;;
59006;SDS011;44792;52.760;6.726;2023-04-03T07:52:41;4.55;;;1.67;;
59006;SDS011;44792;52.760;6.726;2023-04-03T07:55:07;4.07;;;1.70;;
59006;SDS011;44792;52.760;6.726;2023-04-03T07:57:33;9.20;;;2.10;;
59006;SDS011;44792;52.760;6.726;2023-04-03T08:00:00;1.92;;;1.48;;
59006;SDS011;44792;52.760;6.726;2023-04-03T08:02:26;3.00;;;1.83;;
59006;SDS011;44792;52.760;6.726;2023-04-03T08:04:51;4.75;;;1.90;;
59006;SDS011;44792;52.760;6.726;2023-04-03T08:07:17;1.98;;;1.73;;
59006;SDS011;44792;52.760;6.726;2023-04-03T08:09:43;7.10;;;2.70;;
59006;SDS011;44792;52.760;6.726;2023-04-03T08:12:10;3.08;;;1.95;;
59006;SDS011;44792;52.760;6.726;2023-04-03T08:14:36;3.08;;;1.85;;
59006;SDS011;44792;52.760;6.726;2023-04-03T08:17:02;3.92;;;2.10;;
59006;SDS011;44792;52.760;6.726;2023-04-03T08:19:30;3.97;;;1.83;;
59006;SDS011;44792;52.760;6.726;2023-04-03T08:21:56;2.58;;;1.75;;
59006;SDS011;44792;52.760;6.726;2023-04-03T08:24:23;3.05;;;2.00;;
59006;SDS011;44792;52.760;6.726;2023-04-03T08:26:50;4.55;;;1.85;;
59006;SDS011;44792;52.760;6.726;2023-04-03T08:29:16;2.72;;;1.65;;
59006;SDS011;44792;52.760;6.726;2023-04-03T08:31:42;4.13;;;1.80;;
59006;SDS011;44792;52.760;6.726;2023-04-03T08:34:08;2.95;;;1.85;;
59006;SDS011;44792;52.760;6.726;2023-04-03T08:36:33;4.13;;;1.90;;
59006;SDS011;44792;52.760;6.726;2023-04-03T08:38:59;1.65;;;1.55;;
59006;SDS011;44792;52.760;6.726;2023-04-03T08:41:32;5.15;;;2.05;;
59006;SDS011;44792;52.760;6.726;2023-04-03T08:44:02;2.08;;;1.33;;
59006;SDS011;44792;52.760;6.726;2023-04-03T08:51:56;2.08;;;1.48;;
59006;SDS011;44792;52.760;6.726;2023-04-03T08:54:35;5.13;;;1.52;;
59006;SDS011;44792;52.760;6.726;2023-04-03T08:57:06;6.72;;;1.80;;
59006;SDS011;44792;52.760;6.726;2023-04-03T08:59:35;2.97;;;2.17;;
59006;SDS011;44792;52.760;6.726;2023-04-03T09:02:04;2.50;;;2.23;;
59006;SDS011;44792;52.760;6.726;2023-04-03T09:04:59;6.18;;;1.80;;
59006;SDS011;44792;52.760;6.726;2023-04-03T09:07:33;2.92;;;1.77;;
59006;SDS011;44792;52.760;6.726;2023-04-03T09:10:04;3.63;;;1.52;;
59006;SDS011;44792;52.760;6.726;2023-04-03T09:12:36;2.78;;;1.50;;
59006;SDS011;44792;52.760;6.726;2023-04-03T09:17:44;4.13;;;1.40;;
59006;SDS011;44792;52.760;6.726;2023-04-03T09:22:54;3.22;;;1.70;;
59006;SDS011;44792;52.760;6.726;2023-04-03T09:25:25;2.83;;;1.50;;
59006;SDS011;44792;52.760;6.726;2023-04-03T09:27:53;2.50;;;1.50;;
59006;SDS011;44792;52.760;6.726;2023-04-03T09:30:23;1.52;;;1.27;;
59006;SDS011;44792;52.760;6.726;2023-04-03T09:32:51;5.93;;;1.80;;
59006;SDS011;44792;52.760;6.726;2023-04-03T09:38:00;3.47;;;2.38;;
59006;SDS011;44792;52.760;6.726;2023-04-03T09:43:27;3.67;;;1.33;;
59006;SDS011;44792;52.760;6.726;2023-04-03T09:45:54;4.00;;;1.40;;
59006;SDS011;44792;52.760;6.726;2023-04-03T09:48:21;3.70;;;1.63;;
59006;SDS011;44792;52.760;6.726;2023-04-03T09:50:56;4.10;;;1.52;;
59006;SDS011;44792;52.760;6.726;2023-04-03T09:53:34;2.17;;;1.55;;
59006;SDS011;44792;52.760;6.726;2023-04-03T09:56:01;5.10;;;2.08;;
59006;SDS011;44792;52.760;6.726;2023-04-03T09:58:31;3.58;;;1.70;;
59006;SDS011;44792;52.760;6.726;2023-04-03T10:01:01;4.47;;;1.55;;
59006;SDS011;44792;52.760;6.726;2023-04-03T10:03:32;2.55;;;1.17;;
59006;SDS011;44792;52.760;6.726;2023-04-03T10:06:00;2.03;;;1.33;;
59006;SDS011;44792;52.760;6.726;2023-04-03T10:11:11;3.03;;;1.48;;
59006;SDS011;44792;52.760;6.726;2023-04-03T10:16:35;2.38;;;1.38;;
59006;SDS011;44792;52.760;6.726;2023-04-03T10:21:59;4.18;;;1.52;;
59006;SDS011;44792;52.760;6.726;2023-04-03T10:38:26;3.85;;;1.48;;
59006;SDS011;44792;52.760;6.726;2023-04-03T10:41:05;1.98;;;1.40;;
59006;SDS011;44792;52.760;6.726;2023-04-03T10:46:23;2.88;;;1.40;;
59006;SDS011;44792;52.760;6.726;2023-04-03T10:49:05;3.75;;;1.15;;
59006;SDS011;44792;52.760;6.726;2023-04-03T10:54:18;1.98;;;1.77;;
59006;SDS011;44792;52.760;6.726;2023-04-03T10:56:54;2.50;;;1.75;;
59006;SDS011;44792;52.760;6.726;2023-04-03T10:59:36;2.97;;;1.73;;
59006;SDS011;44792;52.760;6.726;2023-04-03T11:04:59;5.38;;;1.52;;
59006;SDS011;44792;52.760;6.726;2023-04-03T11:07:40;1.73;;;1.48;;
59006;SDS011;44792;52.760;6.726;2023-04-03T11:10:13;1.90;;;1.38;;
59006;SDS011;44792;52.760;6.726;2023-04-03T11:13:00;2.55;;;1.35;;
59006;SDS011;44792;52.760;6.726;2023-04-03T11:15:36;2.35;;;1.35;;
59006;SDS011;44792;52.760;6.726;2023-04-03T11:18:04;1.75;;;1.65;;
59006;SDS011;44792;52.760;6.726;2023-04-03T11:20:36;1.90;;;1.45;;
59006;SDS011;44792;52.760;6.726;2023-04-03T11:26:07;4.85;;;1.58;;
59006;SDS011;44792;52.760;6.726;2023-04-03T11:28:33;2.13;;;1.50;;
59006;SDS011;44792;52.760;6.726;2023-04-03T11:36:56;2.95;;;1.60;;
59006;SDS011;44792;52.760;6.726;2023-04-03T11:39:28;3.58;;;1.42;;
59006;SDS011;44792;52.760;6.726;2023-04-03T11:44:43;1.92;;;1.50;;
59006;SDS011;44792;52.760;6.726;2023-04-03T11:47:10;2.35;;;1.48;;
59006;SDS011;44792;52.760;6.726;2023-04-03T12:11:22;1.80;;;1.70;;
59006;SDS011;44792;52.760;6.726;2023-04-03T12:16:23;6.07;;;2.47;;
59006;SDS011;44792;52.760;6.726;2023-04-03T12:26:47;2.95;;;1.70;;
59006;SDS011;44792;52.760;6.726;2023-04-03T12:29:36;4.63;;;1.52;;
59006;SDS011;44792;52.760;6.726;2023-04-03T12:32:17;3.95;;;1.70;;
59006;SDS011;44792;52.760;6.726;2023-04-03T12:34:55;2.50;;;1.63;;
59006;SDS011;44792;52.760;6.726;2023-04-03T12:37:43;2.75;;;2.03;;
59006;SDS011;44792;52.760;6.726;2023-04-03T12:43:28;2.38;;;1.58;;
59006;SDS011;44792;52.760;6.726;2023-04-03T12:48:33;2.97;;;1.88;;
59006;SDS011;44792;52.760;6.726;2023-04-03T12:51:09;2.95;;;1.60;;
59006;SDS011;44792;52.760;6.726;2023-04-03T12:53:48;3.25;;;1.85;;
59006;SDS011;44792;52.760;6.726;2023-04-03T12:58:46;2.22;;;1.58;;
59006;SDS011;44792;52.760;6.726;2023-04-03T13:01:13;4.05;;;1.45;;
59006;SDS011;44792;52.760;6.726;2023-04-03T13:03:47;2.20;;;1.90;;
59006;SDS011;44792;52.760;6.726;2023-04-03T13:06:17;2.78;;;1.80;;
59006;SDS011;44792;52.760;6.726;2023-04-03T13:09:17;1.63;;;1.53;;
59006;SDS011;44792;52.760;6.726;2023-04-03T13:11:51;3.97;;;1.67;;
59006;SDS011;44792;52.760;6.726;2023-04-03T13:14:39;4.28;;;1.85;;
59006;SDS011;44792;52.760;6.726;2023-04-03T13:17:15;3.58;;;1.77;;
59006;SDS011;44792;52.760;6.726;2023-04-03T13:19:42;4.07;;;1.73;;
59006;SDS011;44792;52.760;6.726;2023-04-03T13:22:57;1.90;;;1.63;;
59006;SDS011;44792;52.760;6.726;2023-04-03T13:25:09;2.55;;;1.73;;
59006;SDS011;44792;52.760;6.726;2023-04-03T13:27:38;1.95;;;1.48;;
59006;SDS011;44792;52.760;6.726;2023-04-03T13:30:17;2.30;;;1.70;;
59006;SDS011;44792;52.760;6.726;2023-04-03T13:32:51;2.45;;;1.40;;
59006;SDS011;44792;52.760;6.726;2023-04-03T13:35:54;3.22;;;1.77;;
59006;SDS011;44792;52.760;6.726;2023-04-03T13:40:52;2.28;;;1.58;;
59006;SDS011;44792;52.760;6.726;2023-04-03T13:43:21;2.10;;;1.80;;
59006;SDS011;44792;52.760;6.726;2023-04-03T13:48:34;2.30;;;1.67;;
59006;SDS011;44792;52.760;6.726;2023-04-03T13:53:56;2.33;;;1.52;;
59006;SDS011;44792;52.760;6.726;2023-04-03T13:56:41;3.40;;;2.70;;
59006;SDS011;44792;52.760;6.726;2023-04-03T14:01:52;2.00;;;1.73;;
59006;SDS011;44792;52.760;6.726;2023-04-03T14:04:27;2.42;;;1.90;;
59006;SDS011;44792;52.760;6.726;2023-04-03T14:06:58;2.55;;;2.00;;
59006;SDS011;44792;52.760;6.726;2023-04-03T14:09:25;5.72;;;2.00;;
59006;SDS011;44792;52.760;6.726;2023-04-03T14:11:57;4.13;;;1.88;;
59006;SDS011;44792;52.760;6.726;2023-04-03T14:14:31;2.55;;;1.95;;
59006;SDS011;44792;52.760;6.726;2023-04-03T14:16:59;2.88;;;1.65;;
59006;SDS011;44792;52.760;6.726;2023-04-03T14:19:34;2.55;;;1.88;;
59006;SDS011;44792;52.760;6.726;2023-04-03T14:22:03;2.13;;;1.60;;
59006;SDS011;44792;52.760;6.726;2023-04-03T14:24:53;2.63;;;2.10;;
59006;SDS011;44792;52.760;6.726;2023-04-03T14:27:20;3.55;;;1.88;;
59006;SDS011;44792;52.760;6.726;2023-04-03T14:29:47;2.08;;;1.58;;
59006;SDS011;44792;52.760;6.726;2023-04-03T14:32:14;3.63;;;2.13;;
59006;SDS011;44792;52.760;6.726;2023-04-03T14:34:41;3.78;;;1.98;;
59006;SDS011;44792;52.760;6.726;2023-04-03T14:37:12;3.78;;;1.90;;
59006;SDS011;44792;52.760;6.726;2023-04-03T14:39:40;4.32;;;1.90;;
59006;SDS011;44792;52.760;6.726;2023-04-03T14:42:06;1.95;;;1.77;;
59006;SDS011;44792;52.760;6.726;2023-04-03T14:44:38;7.57;;;1.80;;
59006;SDS011;44792;52.760;6.726;2023-04-03T14:47:03;1.95;;;1.52;;
59006;SDS011;44792;52.760;6.726;2023-04-03T14:49:29;1.73;;;1.60;;
59006;SDS011;44792;52.760;6.726;2023-04-03T14:51:57;2.15;;;1.73;;
59006;SDS011;44792;52.760;6.726;2023-04-03T14:54:23;4.97;;;2.08;;
59006;SDS011;44792;52.760;6.726;2023-04-03T14:56:55;1.95;;;1.67;;
59006;SDS011;44792;52.760;6.726;2023-04-03T14:59:22;3.30;;;2.05;;
59006;SDS011;44792;52.760;6.726;2023-04-03T15:01:48;3.35;;;1.88;;
59006;SDS011;44792;52.760;6.726;2023-04-03T15:04:15;4.03;;;2.15;;
59006;SDS011;44792;52.760;6.726;2023-04-03T15:06:42;2.88;;;1.88;;
59006;SDS011;44792;52.760;6.726;2023-04-03T15:09:12;3.03;;;1.67;;
59006;SDS011;44792;52.760;6.726;2023-04-03T15:11:40;2.65;;;2.05;;
59006;SDS011;44792;52.760;6.726;2023-04-03T15:14:08;3.28;;;1.95;;
59006;SDS011;44792;52.760;6.726;2023-04-03T15:16:34;4.68;;;1.80;;
59006;SDS011;44792;52.760;6.726;2023-04-03T15:19:00;2.40;;;2.03;;
59006;SDS011;44792;52.760;6.726;2023-04-03T15:21:26;1.92;;;1.80;;
59006;SDS011;44792;52.760;6.726;2023-04-03T15:23:51;4.40;;;1.65;;
59006;SDS011;44792;52.760;6.726;2023-04-03T15:26:17;4.57;;;1.77;;
59006;SDS011;44792;52.760;6.726;2023-04-03T15:28:42;8.80;;;2.83;;
59006;SDS011;44792;52.760;6.726;2023-04-03T15:31:09;3.45;;;1.95;;
59006;SDS011;44792;52.760;6.726;2023-04-03T15:33:36;2.58;;;1.35;;
59006;SDS011;44792;52.760;6.726;2023-04-03T15:36:02;2.55;;;1.90;;
59006;SDS011;44792;52.760;6.726;2023-04-03T15:38:29;2.38;;;2.03;;
59006;SDS011;44792;52.760;6.726;2023-04-03T15:40:55;2.50;;;1.92;;
59006;SDS011;44792;52.760;6.726;2023-04-03T15:43:21;3.00;;;1.80;;
59006;SDS011;44792;52.760;6.726;2023-04-03T15:45:47;4.68;;;1.70;;
59006;SDS011;44792;52.760;6.726;2023-04-03T15:48:13;2.58;;;1.83;;
59006;SDS011;44792;52.760;6.726;2023-04-03T15:50:40;2.42;;;1.80;;
59006;SDS011;44792;52.760;6.726;2023-04-03T15:53:06;2.75;;;1.90;;
59006;SDS011;44792;52.760;6.726;2023-04-03T15:55:33;3.30;;;2.00;;
59006;SDS011;44792;52.760;6.726;2023-04-03T15:58:00;3.45;;;1.85;;
59006;SDS011;44792;52.760;6.726;2023-04-03T16:00:26;3.10;;;2.03;;
59006;SDS011;44792;52.760;6.726;2023-04-03T16:02:56;2.92;;;2.20;;
59006;SDS011;44792;52.760;6.726;2023-04-03T16:05:29;28.17;;;7.43;;
59006;SDS011;44792;52.760;6.726;2023-04-03T16:07:56;57.65;;;12.63;;
59006;SDS011;44792;52.760;6.726;2023-04-03T16:10:24;90.00;;;13.18;;
59006;SDS011;44792;52.760;6.726;2023-04-03T16:12:50;58.17;;;7.85;;
59006;SDS011;44792;52.760;6.726;2023-04-03T16:15:16;9.77;;;3.25;;
59006;SDS011;44792;52.760;6.726;2023-04-03T16:17:42;3.00;;;2.00;;
59006;SDS011;44792;52.760;6.726;2023-04-03T16:20:08;2.65;;;1.88;;
59006;SDS011;44792;52.760;6.726;2023-04-03T16:22:36;3.47;;;1.77;;
59006;SDS011;44792;52.760;6.726;2023-04-03T16:25:03;2.58;;;2.03;;
59006;SDS011;44792;52.760;6.726;2023-04-03T16:27:30;2.85;;;2.10;;
59006;SDS011;44792;52.760;6.726;2023-04-03T16:29:56;4.25;;;2.15;;
59006;SDS011;44792;52.760;6.726;2023-04-03T16:32:22;5.05;;;2.28;;
59006;SDS011;44792;52.760;6.726;2023-04-03T16:34:49;6.63;;;2.08;;
59006;SDS011;44792;52.760;6.726;2023-04-03T16:37:16;1.83;;;1.50;;
59006;SDS011;44792;52.760;6.726;2023-04-03T16:39:42;4.28;;;1.83;;
59006;SDS011;44792;52.760;6.726;2023-04-03T16:42:09;2.92;;;1.92;;
59006;SDS011;44792;52.760;6.726;2023-04-03T16:44:35;3.45;;;1.83;;
59006;SDS011;44792;52.760;6.726;2023-04-03T16:47:01;2.63;;;1.85;;
59006;SDS011;44792;52.760;6.726;2023-04-03T16:49:28;3.65;;;1.85;;
59006;SDS011;44792;52.760;6.726;2023-04-03T16:51:58;2.20;;;1.77;;
59006;SDS011;44792;52.760;6.726;2023-04-03T16:54:24;2.40;;;1.80;;
59006;SDS011;44792;52.760;6.726;2023-04-03T16:56:50;5.68;;;1.95;;
59006;SDS011;44792;52.760;6.726;2023-04-03T16:59:16;4.57;;;1.60;;